createdAt,value
2022-10-02T00:01:22.190Z,13.38
2022-10-02T00:06:31.668Z,13.33
2022-10-02T00:11:48.899Z,13.31
2022-10-02T00:16:57.738Z,13.29
2022-10-02T00:22:25.188Z,13.28
2022-10-02T00:27:49.884Z,13.31
2022-10-02T00:33:17.948Z,13.32
2022-10-02T00:38:29.387Z,13.33
2022-10-02T00:43:49.745Z,13.32
2022-10-02T00:49:14.264Z,13.33
2022-10-02T00:54:22.716Z,13.32
2022-10-02T00:59:33.689Z,13.35
2022-10-02T01:04:41.932Z,13.42
2022-10-02T01:09:48.489Z,13.41
2022-10-02T01:14:53.974Z,13.42
2022-10-02T01:20:02.277Z,13.42
2022-10-02T01:25:09.077Z,13.45
2022-10-02T01:30:17.834Z,13.45
2022-10-02T01:35:26.259Z,13.47
2022-10-02T01:40:39.989Z,13.39
2022-10-02T01:46:10.931Z,13.39
2022-10-02T01:51:28.429Z,13.38
2022-10-02T01:56:45.661Z,13.35
2022-10-02T02:02:03.076Z,13.27
2022-10-02T02:07:27.957Z,13.24
2022-10-02T02:12:39.021Z,13.24
2022-10-02T02:17:50.317Z,13.15
2022-10-02T02:22:58.186Z,13.13
2022-10-02T02:28:06.833Z,13.06
2022-10-02T02:33:18.253Z,13.03
2022-10-02T02:38:35.847Z,13.01
2022-10-02T02:43:44.273Z,13.01
2022-10-02T02:49:04.813Z,13.00
2022-10-02T02:54:23.237Z,12.95
2022-10-02T02:59:31.704Z,12.93
2022-10-02T03:04:37.158Z,12.86
2022-10-02T03:09:44.495Z,12.85
2022-10-02T03:15:08.357Z,12.80
2022-10-02T03:20:19.487Z,12.77
2022-10-02T03:25:29.488Z,12.73
2022-10-02T03:30:37.075Z,12.70
2022-10-02T03:35:44.061Z,12.68
2022-10-02T03:40:51.230Z,12.66
2022-10-02T03:45:56.795Z,12.61
2022-10-02T03:51:02.187Z,12.59
2022-10-02T03:56:16.499Z,12.63
2022-10-02T04:01:37.168Z,12.62
2022-10-02T04:06:51.413Z,12.61
2022-10-02T04:12:02.704Z,12.60
2022-10-02T04:17:11.577Z,12.55
2022-10-02T04:22:28.738Z,12.56
2022-10-02T04:27:42.651Z,12.55
2022-10-02T04:32:49.474Z,12.52
2022-10-02T04:38:20.744Z,12.53
2022-10-02T04:43:31.887Z,12.54
2022-10-02T04:48:58.656Z,12.64
2022-10-02T04:54:22.080Z,12.67
2022-10-02T04:59:48.947Z,12.65
2022-10-02T05:05:13.832Z,12.66
2022-10-02T05:10:28.245Z,12.74
2022-10-02T05:15:45.914Z,12.78
2022-10-02T05:21:00.188Z,12.73
2022-10-02T05:26:26.649Z,12.76
2022-10-02T05:31:41.269Z,12.79
2022-10-02T05:37:03.460Z,12.79
2022-10-02T05:42:20.673Z,12.89
2022-10-02T05:47:41.148Z,12.95
2022-10-02T05:53:09.359Z,13.02
2022-10-02T05:58:29.743Z,13.09
2022-10-02T06:03:49.979Z,13.15
2022-10-02T06:08:58.556Z,13.20
2022-10-02T06:14:19.291Z,13.20
2022-10-02T06:19:30.700Z,13.24
2022-10-02T06:24:39.141Z,13.27
2022-10-02T06:30:02.427Z,13.36
2022-10-02T06:35:14.291Z,13.36
2022-10-02T06:40:50.181Z,13.34
2022-10-02T06:46:08.407Z,13.36
2022-10-02T06:51:41.116Z,13.36
2022-10-02T06:57:01.813Z,13.45
2022-10-02T07:02:27.084Z,13.53
2022-10-02T07:07:36.014Z,13.62
2022-10-02T07:12:59.810Z,13.73
2022-10-02T07:18:27.918Z,13.81
2022-10-02T07:23:52.064Z,13.84
2022-10-02T07:29:09.619Z,13.92
2022-10-02T07:34:24.115Z,13.96
2022-10-02T07:39:35.589Z,14.06
2022-10-02T07:44:59.235Z,14.13
2022-10-02T07:50:16.528Z,14.32
2022-10-02T07:55:24.420Z,14.49
2022-10-02T08:00:33.163Z,14.60
2022-10-02T08:05:44.792Z,14.68
2022-10-02T08:10:56.120Z,14.73
2022-10-02T08:16:07.194Z,14.80
2022-10-02T08:21:15.724Z,14.81
2022-10-02T08:26:24.169Z,14.93
2022-10-02T08:31:30.761Z,15.05
2022-10-02T08:37:04.375Z,15.18
2022-10-02T08:42:35.400Z,15.23
2022-10-02T08:47:56.611Z,15.25
2022-10-02T08:53:17.083Z,15.36
2022-10-02T08:58:44.239Z,15.58
2022-10-02T09:04:04.636Z,15.69
2022-10-02T09:09:35.381Z,15.70
2022-10-02T09:15:11.170Z,15.73
2022-10-02T09:20:36.686Z,15.80
2022-10-02T09:25:54.117Z,15.90
2022-10-02T09:31:06.039Z,16.16
2022-10-02T09:36:35.529Z,16.16
2022-10-02T09:42:07.324Z,16.26
2022-10-02T09:47:21.858Z,16.26
2022-10-02T09:52:30.766Z,16.21
2022-10-02T09:58:16.261Z,16.38
2022-10-02T10:03:47.111Z,16.50
2022-10-02T10:09:07.670Z,16.57
2022-10-02T10:14:46.049Z,16.62
2022-10-02T10:20:15.901Z,16.71
2022-10-02T10:25:39.648Z,16.75
2022-10-02T10:31:11.138Z,16.84
2022-10-02T10:36:37.771Z,16.83
2022-10-02T10:41:58.555Z,16.89
2022-10-02T10:47:08.038Z,16.87
2022-10-02T10:52:16.468Z,17.02
2022-10-02T10:57:30.818Z,17.17
2022-10-02T11:02:39.348Z,17.33
2022-10-02T11:07:53.813Z,17.48
2022-10-02T11:13:34.587Z,17.45
2022-10-02T11:19:03.111Z,17.37
2022-10-02T11:24:26.026Z,17.30
2022-10-02T11:29:49.312Z,18.17
2022-10-02T11:35:17.722Z,17.47
2022-10-02T11:40:50.864Z,17.30
2022-10-02T11:46:04.945Z,17.27
2022-10-02T11:51:36.747Z,17.20
2022-10-02T11:57:06.215Z,17.21
2022-10-02T12:02:47.815Z,17.18
2022-10-02T12:08:00.566Z,17.31
2022-10-02T12:13:25.539Z,17.30
2022-10-02T12:18:50.744Z,17.08
2022-10-02T12:24:23.113Z,17.16
2022-10-02T12:29:43.825Z,17.54
2022-10-02T12:35:18.073Z,17.56
2022-10-02T12:40:38.502Z,17.78
2022-10-02T12:46:19.193Z,17.77
2022-10-02T12:51:48.623Z,17.70
2022-10-02T12:57:05.786Z,17.83
2022-10-02T13:02:55.984Z,18.21
2022-10-02T13:08:14.306Z,18.20
2022-10-02T13:13:56.399Z,18.07
2022-10-02T13:19:23.670Z,17.79
2022-10-02T13:24:50.012Z,17.60
2022-10-02T13:30:19.151Z,17.92
2022-10-02T13:35:53.538Z,18.20
2022-10-02T13:41:01.970Z,18.48
2022-10-02T13:46:28.938Z,18.49
2022-10-02T13:51:55.472Z,18.25
2022-10-02T13:57:04.773Z,17.90
2022-10-02T14:02:30.673Z,17.47
2022-10-02T14:07:44.853Z,16.25
2022-10-02T14:13:20.677Z,16.04
2022-10-02T14:18:47.241Z,16.00
2022-10-02T14:24:04.697Z,16.16
2022-10-02T14:29:29.174Z,16.34
2022-10-02T14:35:00.433Z,16.30
2022-10-02T14:40:13.063Z,16.23
2022-10-02T14:45:44.732Z,16.30
2022-10-02T14:50:55.764Z,16.35
2022-10-02T14:56:20.660Z,16.38
2022-10-02T15:01:27.389Z,16.24
2022-10-02T15:06:38.615Z,16.15
2022-10-02T15:11:56.171Z,16.12
2022-10-02T15:17:21.949Z,16.30
2022-10-02T15:22:31.824Z,16.60
2022-10-02T15:27:42.988Z,16.66
2022-10-02T15:32:51.503Z,16.59
2022-10-02T15:38:16.730Z,16.47
2022-10-02T15:43:37.122Z,16.33
2022-10-02T15:48:54.646Z,16.28
2022-10-02T15:54:22.758Z,16.30
2022-10-02T15:59:48.046Z,16.19
2022-10-02T16:05:11.733Z,16.16
2022-10-02T16:10:22.920Z,16.03
2022-10-02T16:15:34.089Z,15.88
2022-10-02T16:20:45.299Z,15.74
2022-10-02T16:26:17.534Z,15.61
2022-10-02T16:31:38.029Z,15.52
2022-10-02T16:36:54.940Z,15.36
2022-10-02T16:42:14.944Z,15.27
2022-10-02T16:47:38.519Z,15.20
2022-10-02T16:52:53.115Z,15.03
2022-10-02T16:58:19.870Z,14.89
2022-10-02T17:03:31.009Z,14.73
2022-10-02T17:08:39.453Z,14.59
2022-10-02T17:13:54.258Z,14.46
2022-10-02T17:19:19.059Z,14.38
2022-10-02T17:24:45.851Z,14.39
2022-10-02T17:30:20.278Z,14.39
2022-10-02T17:35:34.465Z,14.37
2022-10-02T17:40:54.362Z,14.37
2022-10-02T17:46:22.836Z,14.40
2022-10-02T17:51:53.356Z,14.45
2022-10-02T17:57:07.681Z,14.31
2022-10-02T18:02:32.485Z,14.26
2022-10-02T18:07:57.460Z,14.13
2022-10-02T18:13:26.828Z,14.03
2022-10-02T18:18:45.527Z,13.97
2022-10-02T18:24:16.087Z,13.95
2022-10-02T18:29:41.324Z,13.98
2022-10-02T18:35:08.643Z,14.03
2022-10-02T18:40:35.245Z,14.02
2022-10-02T18:45:46.798Z,13.93
2022-10-02T18:51:10.224Z,13.76
2022-10-02T18:56:21.786Z,13.77
2022-10-02T19:01:42.856Z,13.58
2022-10-02T19:07:03.474Z,13.50
2022-10-02T19:12:25.577Z,13.42
2022-10-02T19:17:32.720Z,13.37
2022-10-02T19:22:40.497Z,13.30
2022-10-02T19:27:53.701Z,13.21
2022-10-02T19:33:01.881Z,13.14
2022-10-02T19:38:16.304Z,13.02
2022-10-02T19:43:25.472Z,13.00
2022-10-02T19:48:33.621Z,12.98
2022-10-02T19:53:53.067Z,12.96
2022-10-02T19:59:13.672Z,13.00
2022-10-02T20:04:22.036Z,12.99
2022-10-02T20:09:36.493Z,13.17
2022-10-02T20:14:47.993Z,13.05
2022-10-02T20:19:57.931Z,13.05
2022-10-02T20:25:12.064Z,13.00
2022-10-02T20:30:22.847Z,12.99
2022-10-02T20:35:47.049Z,12.98
2022-10-02T20:40:55.046Z,12.99
2022-10-02T20:46:09.491Z,12.95
2022-10-02T20:51:18.079Z,12.98
2022-10-02T20:56:35.429Z,12.98
2022-10-02T21:02:01.935Z,12.95
2022-10-02T21:07:36.964Z,12.96
2022-10-02T21:13:06.892Z,12.94
2022-10-02T21:18:49.774Z,12.97
2022-10-02T21:24:07.248Z,13.04
2022-10-02T21:29:36.886Z,13.09
2022-10-02T21:34:51.171Z,13.10
2022-10-02T21:39:59.676Z,13.08
2022-10-02T21:45:32.465Z,13.09
2022-10-02T21:51:16.694Z,13.06
2022-10-02T21:56:43.155Z,13.03
2022-10-02T22:02:09.147Z,13.01
2022-10-02T22:07:22.751Z,12.97
2022-10-02T22:12:47.851Z,12.95
2022-10-02T22:18:02.822Z,12.93
2022-10-02T22:23:11.249Z,12.87
2022-10-02T22:28:22.245Z,12.82
2022-10-02T22:33:33.764Z,12.90
2022-10-02T22:38:50.726Z,12.88
2022-10-02T22:44:01.749Z,12.86
2022-10-02T22:49:32.654Z,12.81
2022-10-02T22:54:49.796Z,12.80
2022-10-02T23:00:01.752Z,12.75
2022-10-02T23:05:12.777Z,12.74
2022-10-02T23:10:43.795Z,12.79
2022-10-02T23:16:15.337Z,12.82
2022-10-02T23:21:44.718Z,12.78
2022-10-02T23:26:56.515Z,12.74
2022-10-02T23:32:21.887Z,12.76
2022-10-02T23:37:33.368Z,12.75
2022-10-02T23:42:44.760Z,12.71
2022-10-02T23:48:02.051Z,12.70
2022-10-02T23:53:28.506Z,12.69
2022-10-02T23:58:48.960Z,12.69
